Time;durP1;ratioP1;P1;durP2;ratioP2;P2;SDS_P1;SDS_P2;PMS_P1;PMS_P2;Temp;Humidity;BMP_temperature;BMP_pressure;BME280_temperature;BME280_humidity;BME280_pressure;Samples;Min_cycle;Max_cycle;Signal;HPM_P1;HPM_P2
2022/08/13 00:00:06;;;;;;;;;12.00;10.67;;;;;;;;5098970;27;45230;-83
2022/08/13 00:02:31;;;;;;;;;13.00;10.67;;;;;;;;5098739;27;45387;-80
2022/08/13 00:05:05;;;;;;;;;11.67;9.00;;;;;;;;5098475;27;46194;-82
2022/08/13 00:07:30;;;;;;;;;9.33;7.00;;;;;;;;5097820;27;45278;-84
2022/08/13 00:09:56;;;;;;;;;11.00;9.00;;;;;;;;5097785;27;45384;-82
2022/08/13 00:15:12;;;;;;;;;12.33;9.67;;;;;;;;5098446;27;45455;-82
2022/08/13 00:17:39;;;;;;;;;8.33;8.33;;;;;;;;5098219;27;45254;-82
2022/08/13 00:20:06;;;;;;;;;10.00;6.67;;;;;;;;5098397;27;45356;-81
2022/08/13 00:22:31;;;;;;;;;13.00;13.00;;;;;;;;5098486;27;45419;-81
2022/08/13 00:25:02;;;;;;;;;11.33;10.00;;;;;;;;5097914;27;45956;-81
2022/08/13 00:27:28;;;;;;;;;10.67;8.33;;;;;;;;5098467;27;45395;-81
2022/08/13 00:29:55;;;;;;;;;11.00;9.00;;;;;;;;5098355;27;45249;-81
2022/08/13 00:32:26;;;;;;;;;10.00;8.33;;;;;;;;5098459;27;45309;-79
2022/08/13 00:34:51;;;;;;;;;11.33;9.00;;;;;;;;5097962;27;45469;-83
2022/08/13 00:37:17;;;;;;;;;10.00;8.00;;;;;;;;5097863;27;45447;-81
2022/08/13 00:39:42;;;;;;;;;12.67;10.00;;;;;;;;5098401;27;45396;-83
2022/08/13 00:42:07;;;;;;;;;9.00;8.67;;;;;;;;5098311;27;45262;-81
2022/08/13 00:44:32;;;;;;;;;9.67;9.67;;;;;;;;5097980;27;46561;-81
2022/08/13 00:49:41;;;;;;;;;11.33;10.00;;;;;;;;5098141;27;45424;-82
2022/08/13 00:52:10;;;;;;;;;11.00;11.00;;;;;;;;5098173;27;45255;-81
2022/08/13 00:54:36;;;;;;;;;10.00;10.00;;;;;;;;5097768;27;45475;-81
2022/08/13 00:57:07;;;;;;;;;13.33;9.00;;;;;;;;5097774;27;45438;-81
2022/08/13 00:59:34;;;;;;;;;11.00;9.00;;;;;;;;5097917;27;45505;-81
2022/08/13 01:02:00;;;;;;;;;11.00;9.67;;;;;;;;5098153;27;45199;-81
2022/08/13 01:04:26;;;;;;;;;8.00;8.00;;;;;;;;5097545;27;46510;-82
2022/08/13 01:06:52;;;;;;;;;11.00;9.00;;;;;;;;5097445;27;45251;-81
2022/08/13 01:09:17;;;;;;;;;11.00;11.00;;;;;;;;5097888;27;45378;-81
2022/08/13 01:11:43;;;;;;;;;13.00;11.33;;;;;;;;5097770;27;45642;-82
2022/08/13 01:14:08;;;;;;;;;12.00;11.00;;;;;;;;5097632;27;46193;-81
2022/08/13 01:16:36;;;;;;;;;9.33;9.33;;;;;;;;5097762;27;45374;-81
2022/08/13 01:19:03;;;;;;;;;10.00;9.67;;;;;;;;5097806;27;45429;-82
2022/08/13 01:21:30;;;;;;;;;13.00;11.00;;;;;;;;5101443;27;45418;-81
2022/08/13 01:23:56;;;;;;;;;12.67;10.67;;;;;;;;5100946;27;45306;-81
2022/08/13 01:26:22;;;;;;;;;12.33;12.33;;;;;;;;5100930;27;45924;-80
2022/08/13 01:28:48;;;;;;;;;12.67;12.00;;;;;;;;5101306;27;45210;-81
2022/08/13 01:31:15;;;;;;;;;12.67;11.67;;;;;;;;5101166;27;45319;-80
2022/08/13 01:33:41;;;;;;;;;12.00;12.00;;;;;;;;5100931;27;45380;-81
2022/08/13 01:36:07;;;;;;;;;12.00;10.00;;;;;;;;5100834;27;45308;-80
2022/08/13 01:38:33;;;;;;;;;12.00;11.33;;;;;;;;5101013;27;45679;-80
2022/08/13 01:40:59;;;;;;;;;8.67;8.00;;;;;;;;5101387;27;45219;-81
2022/08/13 01:43:28;;;;;;;;;12.00;10.67;;;;;;;;5100655;27;46203;-81
2022/08/13 01:45:54;;;;;;;;;12.33;11.67;;;;;;;;5100822;27;45395;-81
2022/08/13 01:51:08;;;;;;;;;10.33;10.00;;;;;;;;5101060;27;45304;-80
2022/08/13 01:53:33;;;;;;;;;8.33;8.33;;;;;;;;5100264;27;45567;-81
2022/08/13 01:56:00;;;;;;;;;10.00;10.00;;;;;;;;5100567;27;45252;-81
2022/08/13 01:58:26;;;;;;;;;9.33;9.33;;;;;;;;5100562;27;45298;-82
2022/08/13 02:00:59;;;;;;;;;9.33;9.33;;;;;;;;5100968;27;45335;-82
2022/08/13 02:03:25;;;;;;;;;12.00;10.67;;;;;;;;5100235;27;47371;-81
2022/08/13 02:05:50;;;;;;;;;10.33;8.67;;;;;;;;5100010;27;45416;-82
2022/08/13 02:08:20;;;;;;;;;10.00;8.33;;;;;;;;5100449;27;45206;-82
2022/08/13 02:10:47;;;;;;;;;11.00;9.00;;;;;;;;5100407;27;45273;-82
2022/08/13 02:13:14;;;;;;;;;11.33;10.33;;;;;;;;5100283;27;46129;-83
2022/08/13 02:15:40;;;;;;;;;8.00;8.00;;;;;;;;5100284;27;45251;-83
2022/08/13 02:18:07;;;;;;;;;8.67;8.67;;;;;;;;5100313;27;45287;-81
2022/08/13 02:20:34;;;;;;;;;10.00;9.33;;;;;;;;5082014;27;45543;-81
2022/08/13 02:22:59;;;;;;;;;13.67;10.67;;;;;;;;5099724;27;47273;-80
2022/08/13 02:25:26;;;;;;;;;9.00;7.33;;;;;;;;5100035;27;45404;-80
2022/08/13 02:27:55;;;;;;;;;10.33;9.00;;;;;;;;5100172;27;45361;-81
2022/08/13 02:30:21;;;;;;;;;10.33;9.00;;;;;;;;5100217;27;45192;-81
2022/08/13 02:32:47;;;;;;;;;11.67;9.00;;;;;;;;5099029;27;46847;-82
2022/08/13 02:35:15;;;;;;;;;11.00;7.33;;;;;;;;5099780;27;45420;-81
2022/08/13 02:37:40;;;;;;;;;12.00;10.00;;;;;;;;5100064;27;45415;-80
2022/08/13 02:41:38;;;;;;;;;12.00;7.33;;;;;;;;5100230;27;45214;-80
2022/08/13 02:42:53;;;;;;;;;8.00;8.00;;;;;;;;5099675;27;45636;-81
2022/08/13 02:45:20;;;;;;;;;7.33;7.33;;;;;;;;5099643;27;45364;-81
2022/08/13 02:47:46;;;;;;;;;9.67;8.33;;;;;;;;5099772;27;45315;-80
2022/08/13 02:50:11;;;;;;;;;10.33;8.00;;;;;;;;5100001;27;45518;-82
2022/08/13 02:52:38;;;;;;;;;9.00;9.00;;;;;;;;5099737;27;46116;-81
2022/08/13 02:55:04;;;;;;;;;12.33;10.67;;;;;;;;5099888;27;45447;-81
2022/08/13 02:57:30;;;;;;;;;11.67;10.67;;;;;;;;5099674;27;45426;-82
2022/08/13 02:59:55;;;;;;;;;9.67;8.00;;;;;;;;5099900;27;45393;-82
2022/08/13 03:02:20;;;;;;;;;11.67;10.67;;;;;;;;5099881;27;46325;-81
2022/08/13 03:04:46;;;;;;;;;10.00;8.00;;;;;;;;5099458;27;45413;-80
2022/08/13 03:07:11;;;;;;;;;8.33;8.33;;;;;;;;5091866;27;45479;-80
2022/08/13 03:09:36;;;;;;;;;10.00;10.00;;;;;;;;5120263;27;45263;-77
2022/08/13 03:12:03;;;;;;;;;11.67;9.00;;;;;;;;5120013;27;46742;-78
2022/08/13 03:14:31;;;;;;;;;8.67;8.67;;;;;;;;5119927;27;45454;-77
2022/08/13 03:16:56;;;;;;;;;8.67;8.33;;;;;;;;5119972;27;45186;-79
2022/08/13 03:19:21;;;;;;;;;9.67;8.67;;;;;;;;5120188;27;45261;-81
2022/08/13 03:21:47;;;;;;;;;7.67;6.00;;;;;;;;5120007;27;46636;-79
2022/08/13 03:24:14;;;;;;;;;8.67;7.00;;;;;;;;5119680;27;45493;-80
2022/08/13 03:26:39;;;;;;;;;9.00;8.00;;;;;;;;5119665;27;45380;-79
2022/08/13 03:29:05;;;;;;;;;6.00;6.00;;;;;;;;5120010;27;45410;-80
2022/08/13 03:31:30;;;;;;;;;8.00;8.00;;;;;;;;5119648;27;46169;-81
2022/08/13 03:33:58;;;;;;;;;10.33;9.00;;;;;;;;5119560;27;45423;-79
2022/08/13 03:36:24;;;;;;;;;7.00;7.00;;;;;;;;5119815;27;45328;-80
2022/08/13 03:38:49;;;;;;;;;7.33;7.33;;;;;;;;5119912;27;45367;-81
2022/08/13 03:41:15;;;;;;;;;8.67;7.33;;;;;;;;5119333;27;46368;-81
2022/08/13 03:43:44;;;;;;;;;8.00;8.00;;;;;;;;5119424;27;45410;-81
2022/08/13 03:46:14;;;;;;;;;10.67;9.00;;;;;;;;5119640;27;46067;-81
2022/08/13 03:48:39;;;;;;;;;9.67;8.33;;;;;;;;5119863;27;45572;-81
2022/08/13 03:51:06;;;;;;;;;7.33;7.33;;;;;;;;5119275;27;45382;-80
2022/08/13 03:53:32;;;;;;;;;8.33;8.33;;;;;;;;5119399;27;45361;-80
2022/08/13 03:55:58;;;;;;;;;8.00;8.00;;;;;;;;5119512;27;45265;-79
2022/08/13 03:58:24;;;;;;;;;11.33;10.00;;;;;;;;5119559;27;45350;-80
2022/08/13 04:00:49;;;;;;;;;6.33;6.33;;;;;;;;5119139;27;46650;-80
2022/08/13 04:03:23;;;;;;;;;8.00;7.00;;;;;;;;5119254;27;45362;-79
2022/08/13 04:05:50;;;;;;;;;7.67;7.67;;;;;;;;5119335;27;45402;-80
2022/08/13 04:08:16;;;;;;;;;7.00;7.00;;;;;;;;5119253;27;45311;-78
2022/08/13 04:10:42;;;;;;;;;9.33;8.00;;;;;;;;5118953;27;46189;-79
2022/08/13 04:13:11;;;;;;;;;9.00;7.67;;;;;;;;5118759;27;45465;-80
2022/08/13 04:15:36;;;;;;;;;9.33;9.00;;;;;;;;5119080;27;45212;-80
2022/08/13 04:18:01;;;;;;;;;8.33;8.33;;;;;;;;5119385;27;45258;-81
2022/08/13 04:20:27;;;;;;;;;10.67;8.33;;;;;;;;5118764;27;46481;-80
2022/08/13 04:22:53;;;;;;;;;9.00;8.00;;;;;;;;5118676;27;45448;-80
2022/08/13 04:25:19;;;;;;;;;9.67;9.67;;;;;;;;5118971;27;45443;-80
2022/08/13 04:27:44;;;;;;;;;10.00;8.67;;;;;;;;5119027;27;45479;-81
2022/08/13 04:30:09;;;;;;;;;8.33;8.00;;;;;;;;5100299;27;47403;-80
2022/08/13 04:32:41;;;;;;;;;10.00;10.00;;;;;;;;5118807;27;45318;-82
2022/08/13 04:35:07;;;;;;;;;9.33;8.00;;;;;;;;5118800;27;45271;-79
2022/08/13 04:37:32;;;;;;;;;8.67;8.67;;;;;;;;5118900;27;45212;-79
2022/08/13 04:39:57;;;;;;;;;7.33;7.00;;;;;;;;5118671;27;45332;-79
2022/08/13 04:42:23;;;;;;;;;11.33;9.00;;;;;;;;5118842;27;45383;-80
2022/08/13 04:44:48;;;;;;;;;8.33;8.33;;;;;;;;5100273;27;45405;-80
2022/08/13 04:47:14;;;;;;;;;11.00;10.00;;;;;;;;5118739;27;45399;-80
2022/08/13 04:49:39;;;;;;;;;9.00;9.00;;;;;;;;5118572;27;47027;-79
2022/08/13 04:52:04;;;;;;;;;8.00;8.00;;;;;;;;5118672;27;45351;-81
2022/08/13 04:54:30;;;;;;;;;8.67;7.33;;;;;;;;5119730;27;45275;-81
2022/08/13 04:56:55;;;;;;;;;8.00;8.00;;;;;;;;5122656;27;45359;-80
2022/08/13 04:59:22;;;;;;;;;9.00;8.00;;;;;;;;5121878;27;46367;-81
2022/08/13 05:01:47;;;;;;;;;8.33;8.33;;;;;;;;5121613;27;45446;-80
2022/08/13 05:04:13;;;;;;;;;8.00;8.00;;;;;;;;5122245;27;45330;-81
2022/08/13 05:06:38;;;;;;;;;11.67;9.00;;;;;;;;5122147;27;45445;-81
2022/08/13 05:09:03;;;;;;;;;12.67;9.00;;;;;;;;5121818;27;45560;-81
2022/08/13 05:11:29;;;;;;;;;5.00;5.00;;;;;;;;5121818;27;45492;-80
2022/08/13 05:13:54;;;;;;;;;9.00;8.00;;;;;;;;5121931;27;45434;-81
2022/08/13 05:16:19;;;;;;;;;8.00;8.00;;;;;;;;5122195;27;45316;-82
2022/08/13 05:18:50;;;;;;;;;9.00;7.00;;;;;;;;5121971;27;45435;-82
2022/08/13 05:21:16;;;;;;;;;12.00;12.00;;;;;;;;5121772;27;45858;-82
2022/08/13 05:23:41;;;;;;;;;11.33;8.33;;;;;;;;5121868;27;45356;-82
2022/08/13 05:26:07;;;;;;;;;8.00;8.00;;;;;;;;5121977;27;45505;-81
2022/08/13 05:28:34;;;;;;;;;10.00;7.00;;;;;;;;5121586;27;47615;-82
2022/08/13 05:31:00;;;;;;;;;10.00;9.67;;;;;;;;5121650;27;45457;-81
2022/08/13 05:33:26;;;;;;;;;10.00;8.33;;;;;;;;5121696;27;45398;-83
2022/08/13 05:35:53;;;;;;;;;7.00;7.00;;;;;;;;5121592;27;45425;-82
2022/08/13 05:38:22;;;;;;;;;15.67;13.33;;;;;;;;5121716;27;46099;-81
2022/08/13 05:40:51;;;;;;;;;10.33;7.67;;;;;;;;5121408;27;45445;-82
2022/08/13 05:43:17;;;;;;;;;8.00;7.33;;;;;;;;5121439;27;45485;-81
2022/08/13 05:45:46;;;;;;;;;8.00;7.00;;;;;;;;5121714;27;45222;-80
2022/08/13 05:48:12;;;;;;;;;6.33;6.33;;;;;;;;5121641;27;46429;-80
2022/08/13 05:50:37;;;;;;;;;10.33;8.67;;;;;;;;5121626;27;45422;-82
2022/08/13 05:53:08;;;;;;;;;9.00;7.33;;;;;;;;5121651;27;45410;-81
2022/08/13 05:55:34;;;;;;;;;6.00;6.00;;;;;;;;5121467;27;45473;-82
2022/08/13 05:57:59;;;;;;;;;7.33;7.33;;;;;;;;5120942;27;47465;-81
2022/08/13 06:05:56;;;;;;;;;9.33;8.00;;;;;;;;5119981;27;45280;-81
2022/08/13 06:08:23;;;;;;;;;6.33;6.00;;;;;;;;5118834;27;46286;-83
2022/08/13 06:10:49;;;;;;;;;7.00;7.00;;;;;;;;5121002;27;45411;-80
2022/08/13 06:13:15;;;;;;;;;8.00;8.00;;;;;;;;5121051;27;45374;-82
2022/08/13 06:15:42;;;;;;;;;6.67;6.67;;;;;;;;5121453;27;45649;-80
2022/08/13 06:18:09;;;;;;;;;6.00;6.00;;;;;;;;5120860;27;47188;-80
2022/08/13 06:20:34;;;;;;;;;7.00;7.00;;;;;;;;5120873;27;45433;-80
2022/08/13 06:23:00;;;;;;;;;11.00;6.00;;;;;;;;5120698;27;45425;-80
2022/08/13 06:25:27;;;;;;;;;8.00;8.00;;;;;;;;5121059;27;45510;-79
2022/08/13 06:27:52;;;;;;;;;7.00;7.00;;;;;;;;5120622;27;46164;-80
2022/08/13 06:30:18;;;;;;;;;8.00;6.00;;;;;;;;5120712;27;45406;-81
2022/08/13 06:32:44;;;;;;;;;6.67;6.67;;;;;;;;5120780;27;45249;-79
2022/08/13 06:35:10;;;;;;;;;8.00;6.00;;;;;;;;5120823;27;45438;-81
2022/08/13 06:37:35;;;;;;;;;7.67;7.67;;;;;;;;5120314;27;46050;-82
2022/08/13 06:40:01;;;;;;;;;5.00;5.00;;;;;;;;5120497;27;45362;-81
2022/08/13 06:42:28;;;;;;;;;8.00;8.00;;;;;;;;5120649;27;45472;-83
2022/08/13 06:44:56;;;;;;;;;6.67;6.33;;;;;;;;5120657;27;45436;-83
2022/08/13 06:47:25;;;;;;;;;7.33;6.00;;;;;;;;5120516;27;46623;-81
2022/08/13 06:49:51;;;;;;;;;6.33;6.33;;;;;;;;5120655;27;45351;-80
2022/08/13 06:52:16;;;;;;;;;6.00;6.00;;;;;;;;5120471;27;45205;-80
2022/08/13 06:54:42;;;;;;;;;7.00;6.00;;;;;;;;5102273;27;45543;-81
2022/08/13 06:57:08;;;;;;;;;6.00;6.00;;;;;;;;5120458;27;46096;-81
2022/08/13 06:59:39;;;;;;;;;5.00;5.00;;;;;;;;5120412;27;45492;-84
2022/08/13 07:02:05;;;;;;;;;8.33;5.00;;;;;;;;5120474;27;45492;-80
2022/08/13 07:04:30;;;;;;;;;5.33;5.33;;;;;;;;5120408;27;45271;-80
2022/08/13 07:06:56;;;;;;;;;4.33;4.00;;;;;;;;5119973;27;45324;-82
2022/08/13 07:09:21;;;;;;;;;5.33;5.33;;;;;;;;5120202;27;45236;-81
2022/08/13 07:11:47;;;;;;;;;7.33;5.33;;;;;;;;5120438;27;45280;-81
2022/08/13 07:14:13;;;;;;;;;4.00;4.00;;;;;;;;5120774;27;45286;-82
2022/08/13 07:16:39;;;;;;;;;5.00;5.00;;;;;;;;5119869;27;46669;-81
2022/08/13 07:19:05;;;;;;;;;7.00;5.00;;;;;;;;5120100;27;45380;-83
2022/08/13 07:21:31;;;;;;;;;5.00;5.00;;;;;;;;5120649;27;45252;-83
2022/08/13 07:23:57;;;;;;;;;5.00;5.00;;;;;;;;5120523;27;45306;-84
2022/08/13 07:26:24;;;;;;;;;4.00;4.00;;;;;;;;5120239;27;46085;-85
2022/08/13 07:28:50;;;;;;;;;5.67;5.00;;;;;;;;5120766;27;45300;-82
2022/08/13 07:31:17;;;;;;;;;5.67;4.00;;;;;;;;5121052;27;45365;-84
2022/08/13 07:33:48;;;;;;;;;3.67;3.67;;;;;;;;5120257;27;45433;-79
2022/08/13 07:36:14;;;;;;;;;8.33;6.00;;;;;;;;5119532;27;45490;-81
2022/08/13 07:38:40;;;;;;;;;5.00;5.00;;;;;;;;5119716;27;45441;-82
2022/08/13 07:41:05;;;;;;;;;5.00;5.00;;;;;;;;5119763;27;45459;-80
2022/08/13 07:43:35;;;;;;;;;17.33;16.67;;;;;;;;5119841;27;45283;-78
2022/08/13 07:46:02;;;;;;;;;7.00;5.00;;;;;;;;5119345;27;46500;-81
2022/08/13 07:48:29;;;;;;;;;7.00;6.00;;;;;;;;5119405;27;45324;-80
2022/08/13 07:50:54;;;;;;;;;6.00;6.00;;;;;;;;5119545;27;45286;-81
2022/08/13 07:53:23;;;;;;;;;7.33;6.33;;;;;;;;5119621;27;45370;-80
2022/08/13 07:55:49;;;;;;;;;2.00;2.00;;;;;;;;5119377;27;45250;-79
2022/08/13 07:58:15;;;;;;;;;5.33;3.33;;;;;;;;5119435;27;45445;-81
2022/08/13 08:00:41;;;;;;;;;6.00;5.00;;;;;;;;5119377;27;45334;-80
2022/08/13 08:03:06;;;;;;;;;4.00;4.00;;;;;;;;5119500;27;45281;-80
2022/08/13 08:05:34;;;;;;;;;5.33;5.00;;;;;;;;5119217;27;46348;-80
2022/08/13 08:08:00;;;;;;;;;4.00;4.00;;;;;;;;5118875;27;45290;-81
2022/08/13 08:10:26;;;;;;;;;4.00;4.00;;;;;;;;5119097;27;45389;-79
2022/08/13 08:12:56;;;;;;;;;6.33;5.00;;;;;;;;5119202;27;45441;-80
2022/08/13 08:15:23;;;;;;;;;5.00;5.00;;;;;;;;5119134;27;46677;-80
2022/08/13 08:17:48;;;;;;;;;9.00;6.00;;;;;;;;5119038;27;45429;-80
2022/08/13 08:20:21;;;;;;;;;4.00;4.00;;;;;;;;5119101;27;45302;-80
2022/08/13 08:22:47;;;;;;;;;5.00;5.00;;;;;;;;5119168;27;45433;-80
2022/08/13 08:25:19;;;;;;;;;4.00;4.00;;;;;;;;5118586;27;45330;-81
2022/08/13 08:27:44;;;;;;;;;4.00;4.00;;;;;;;;5118823;27;45416;-80
2022/08/13 08:30:13;;;;;;;;;6.33;6.00;;;;;;;;5099549;27;45305;-80
2022/08/13 08:32:39;;;;;;;;;4.67;4.67;;;;;;;;5119190;27;45295;-79
2022/08/13 08:35:04;;;;;;;;;5.00;5.00;;;;;;;;5118634;27;45212;-80
2022/08/13 08:43:00;;;;;;;;;4.00;4.00;;;;;;;;5118871;27;45455;-80
2022/08/13 08:45:26;;;;;;;;;4.00;4.00;;;;;;;;5118417;27;46714;-80
2022/08/13 08:47:52;;;;;;;;;7.33;4.67;;;;;;;;5118493;27;45357;-81
2022/08/13 08:50:22;;;;;;;;;5.00;4.00;;;;;;;;5118804;27;45413;-81
2022/08/13 08:55:36;;;;;;;;;2.33;2.33;;;;;;;;5118533;27;45813;-81
2022/08/13 08:58:05;;;;;;;;;5.33;5.00;;;;;;;;5118343;27;45639;-80
2022/08/13 09:00:31;;;;;;;;;8.00;6.00;;;;;;;;5118533;27;45406;-80
2022/08/13 09:02:57;;;;;;;;;5.00;5.00;;;;;;;;5118736;27;45409;-78
2022/08/13 09:05:25;;;;;;;;;4.33;4.33;;;;;;;;5118390;27;45405;-82
2022/08/13 09:07:51;;;;;;;;;5.67;3.67;;;;;;;;5118045;27;45647;-81
2022/08/13 09:10:17;;;;;;;;;4.00;4.00;;;;;;;;5118792;27;45205;-81
2022/08/13 09:12:44;;;;;;;;;3.33;2.67;;;;;;;;5118650;27;45204;-82
2022/08/13 09:15:13;;;;;;;;;2.00;2.00;;;;;;;;5118064;27;46716;-81
2022/08/13 09:17:39;;;;;;;;;3.00;3.00;;;;;;;;5118441;27;45416;-80
2022/08/13 09:20:07;;;;;;;;;3.00;3.00;;;;;;;;5118371;27;45243;-80
2022/08/13 09:22:33;;;;;;;;;3.67;3.67;;;;;;;;5118554;27;45399;-80
2022/08/13 09:24:58;;;;;;;;;5.00;3.00;;;;;;;;5118015;27;46136;-82
2022/08/13 09:27:23;;;;;;;;;4.67;4.67;;;;;;;;5118174;27;45213;-82
2022/08/13 09:29:50;;;;;;;;;3.00;3.00;;;;;;;;5118224;27;45442;-80
2022/08/13 09:32:16;;;;;;;;;2.00;2.00;;;;;;;;5118364;27;45314;-79
2022/08/13 09:34:43;;;;;;;;;3.33;3.00;;;;;;;;5118047;27;46110;-80
2022/08/13 09:37:09;;;;;;;;;3.00;3.00;;;;;;;;5118202;27;45459;-82
2022/08/13 09:39:49;;;;;;;;;2.33;2.33;;;;;;;;5118143;27;45282;-81
2022/08/13 09:42:18;;;;;;;;;3.00;3.00;;;;;;;;5121842;27;45343;-82
2022/08/13 09:44:43;;;;;;;;;3.33;2.00;;;;;;;;5121490;27;46270;-80
2022/08/13 09:47:12;;;;;;;;;4.00;3.33;;;;;;;;5121290;27;45536;-81
2022/08/13 09:49:38;;;;;;;;;4.00;4.00;;;;;;;;5121640;27;45314;-80
2022/08/13 09:52:03;;;;;;;;;4.00;3.00;;;;;;;;5121616;27;45313;-81
2022/08/13 09:54:28;;;;;;;;;4.33;4.33;;;;;;;;5121133;27;45585;-78
2022/08/13 09:56:58;;;;;;;;;3.00;3.00;;;;;;;;5121310;27;45228;-81
2022/08/13 09:59:23;;;;;;;;;3.67;3.67;;;;;;;;5121355;27;45391;-81
2022/08/13 10:01:49;;;;;;;;;3.67;2.00;;;;;;;;5121512;27;45212;-80
2022/08/13 10:04:18;;;;;;;;;3.00;3.00;;;;;;;;5121428;27;47659;-79
2022/08/13 10:06:44;;;;;;;;;2.00;2.00;;;;;;;;5121011;27;45397;-82
2022/08/13 10:09:09;;;;;;;;;1.00;1.00;;;;;;;;5121308;27;45304;-84
2022/08/13 10:11:34;;;;;;;;;2.75;2.75;;;;;;;;5121435;27;45371;-80
2022/08/13 10:14:00;;;;;;;;;1.00;1.00;;;;;;;;5120887;27;45441;-82
2022/08/13 10:16:25;;;;;;;;;2.75;1.25;;;;;;;;5120996;27;45556;-82
2022/08/13 10:18:50;;;;;;;;;2.00;2.00;;;;;;;;5121159;27;45295;-79
2022/08/13 10:21:15;;;;;;;;;2.00;2.00;;;;;;;;5121170;27;45364;-82
2022/08/13 10:23:41;;;;;;;;;1.00;1.00;;;;;;;;5120664;27;47474;-79
2022/08/13 10:26:07;;;;;;;;;1.00;1.00;;;;;;;;5120790;27;45345;-82
2022/08/13 10:28:33;;;;;;;;;2.50;2.50;;;;;;;;5120791;27;45305;-81
2022/08/13 10:31:02;;;;;;;;;3.00;3.00;;;;;;;;5120848;27;45476;-79
2022/08/13 10:33:27;;;;;;;;;3.25;2.00;;;;;;;;5120626;27;47737;-79
2022/08/13 10:35:53;;;;;;;;;2.25;2.25;;;;;;;;5120655;27;45228;-79
2022/08/13 10:38:26;;;;;;;;;2.25;2.25;;;;;;;;5120733;27;45199;-81
2022/08/13 10:40:51;;;;;;;;;2.00;2.00;;;;;;;;5121012;27;45636;-78
2022/08/13 10:43:17;;;;;;;;;4.00;4.00;;;;;;;;5120559;27;45427;-81
2022/08/13 10:45:42;;;;;;;;;4.00;3.25;;;;;;;;5119983;27;45312;-79
2022/08/13 10:48:08;;;;;;;;;5.00;5.00;;;;;;;;5120474;27;45199;-77
2022/08/13 10:50:34;;;;;;;;;3.00;3.00;;;;;;;;5120846;27;45428;-79
2022/08/13 10:52:59;;;;;;;;;4.75;3.50;;;;;;;;5119660;27;45482;-77
2022/08/13 10:55:25;;;;;;;;;5.00;4.75;;;;;;;;5120310;27;45350;-80
2022/08/13 10:57:51;;;;;;;;;3.50;3.00;;;;;;;;5120584;27;45397;-80
2022/08/13 11:00:17;;;;;;;;;2.00;2.00;;;;;;;;5120449;27;45515;-80
2022/08/13 11:02:42;;;;;;;;;2.25;2.00;;;;;;;;5120264;27;45377;-81
2022/08/13 11:05:08;;;;;;;;;2.25;2.25;;;;;;;;5120095;27;45343;-79
2022/08/13 11:07:35;;;;;;;;;3.00;3.00;;;;;;;;5120188;27;45364;-77
2022/08/13 11:10:01;;;;;;;;;2.00;2.00;;;;;;;;5120299;27;45237;-79
2022/08/13 11:12:26;;;;;;;;;3.00;3.00;;;;;;;;5119666;27;46259;-78
2022/08/13 11:14:51;;;;;;;;;2.00;2.00;;;;;;;;5119789;27;45238;-76
2022/08/13 11:17:20;;;;;;;;;3.25;3.25;;;;;;;;5120219;27;45409;-77
2022/08/13 11:19:48;;;;;;;;;3.25;2.75;;;;;;;;5120295;27;45320;-78
2022/08/13 11:22:13;;;;;;;;;2.00;2.00;;;;;;;;5119635;27;47499;-79
2022/08/13 11:24:39;;;;;;;;;3.25;3.25;;;;;;;;5119812;27;45416;-79
2022/08/13 11:27:04;;;;;;;;;2.00;2.00;;;;;;;;5120029;27;45590;-76
2022/08/13 11:29:30;;;;;;;;;12.00;12.00;;;;;;;;5119902;27;45352;-76
2022/08/13 11:31:55;;;;;;;;;4.50;4.50;;;;;;;;5119468;27;46148;-77
2022/08/13 11:34:21;;;;;;;;;2.50;2.00;;;;;;;;5119729;27;45411;-80
2022/08/13 11:36:46;;;;;;;;;3.75;3.75;;;;;;;;5119688;27;45425;-78
2022/08/13 11:39:11;;;;;;;;;3.67;3.00;;;;;;;;5120107;27;45285;-81
2022/08/13 11:41:36;;;;;;;;;2.00;2.00;;;;;;;;5119714;27;45422;-80
2022/08/13 11:44:02;;;;;;;;;3.75;3.75;;;;;;;;5119734;27;45165;-77
2022/08/13 11:46:27;;;;;;;;;5.33;4.00;;;;;;;;5100918;27;45301;-77
2022/08/13 11:48:53;;;;;;;;;2.00;2.00;;;;;;;;5119805;27;45203;-80
2022/08/13 11:51:18;;;;;;;;;4.67;4.00;;;;;;;;5119351;27;46584;-80
2022/08/13 11:53:43;;;;;;;;;2.33;2.33;;;;;;;;5119456;27;45426;-81
2022/08/13 11:56:08;;;;;;;;;4.00;3.67;;;;;;;;5119465;27;45846;-81
2022/08/13 11:58:34;;;;;;;;;2.00;2.00;;;;;;;;5119851;27;45433;-80
2022/08/13 12:00:59;;;;;;;;;2.67;2.67;;;;;;;;5119223;27;46342;-79
2022/08/13 12:03:24;;;;;;;;;2.00;2.00;;;;;;;;5118737;27;45333;-81
2022/08/13 12:05:50;;;;;;;;;2.00;2.00;;;;;;;;5118655;27;45346;-82
2022/08/13 12:08:16;;;;;;;;;2.00;2.00;;;;;;;;5119341;27;45457;-80
2022/08/13 12:10:41;;;;;;;;;2.33;2.33;;;;;;;;5119035;27;46459;-80
2022/08/13 12:13:07;;;;;;;;;3.67;1.67;;;;;;;;5119044;27;45350;-81
2022/08/13 12:15:32;;;;;;;;;2.67;2.33;;;;;;;;5119299;27;45322;-78
2022/08/13 12:17:58;;;;;;;;;2.67;2.67;;;;;;;;5119443;27;45430;-79
2022/08/13 12:20:23;;;;;;;;;2.33;1.67;;;;;;;;5119030;27;45248;-79
2022/08/13 12:22:50;;;;;;;;;5.67;3.67;;;;;;;;5118973;27;45302;-78
2022/08/13 12:25:15;;;;;;;;;5.67;2.67;;;;;;;;5119088;27;45213;-79
2022/08/13 12:27:40;;;;;;;;;4.00;2.33;;;;;;;;5119296;27;45416;-82
2022/08/13 12:30:06;;;;;;;;;2.33;2.33;;;;;;;;5118667;27;45385;-78
2022/08/13 12:32:31;;;;;;;;;2.33;2.33;;;;;;;;5118729;27;45160;-77
2022/08/13 12:34:56;;;;;;;;;3.00;2.67;;;;;;;;5119047;27;45259;-79
2022/08/13 12:37:24;;;;;;;;;3.33;2.67;;;;;;;;5119068;27;45456;-79
2022/08/13 12:39:54;;;;;;;;;1.67;1.67;;;;;;;;5118779;27;46717;-80
2022/08/13 12:42:20;;;;;;;;;2.67;2.67;;;;;;;;5118869;27;45287;-79
2022/08/13 12:44:45;;;;;;;;;3.67;2.67;;;;;;;;5118922;27;45309;-80
2022/08/13 12:47:10;;;;;;;;;2.00;2.00;;;;;;;;5118893;27;45393;-80
2022/08/13 12:49:36;;;;;;;;;2.67;2.67;;;;;;;;5118766;27;47163;-77
2022/08/13 12:52:01;;;;;;;;;1.33;1.33;;;;;;;;5118787;27;45536;-81
2022/08/13 12:54:27;;;;;;;;;2.67;2.67;;;;;;;;5119009;27;45231;-79
2022/08/13 12:56:53;;;;;;;;;1.67;1.67;;;;;;;;5118898;27;45537;-81
2022/08/13 12:59:18;;;;;;;;;3.67;2.67;;;;;;;;5118217;27;46341;-77
2022/08/13 13:01:43;;;;;;;;;1.67;1.67;;;;;;;;5118479;27;45638;-77
2022/08/13 13:04:08;;;;;;;;;2.00;1.67;;;;;;;;5118744;27;45314;-77
2022/08/13 13:06:33;;;;;;;;;4.00;4.00;;;;;;;;5118692;27;45419;-78
2022/08/13 13:08:59;;;;;;;;;3.67;1.67;;;;;;;;5118513;27;45216;-80
2022/08/13 13:11:24;;;;;;;;;2.00;2.00;;;;;;;;5118458;27;45418;-77
2022/08/13 13:13:49;;;;;;;;;2.00;2.00;;;;;;;;5118725;27;45275;-79
2022/08/13 13:16:15;;;;;;;;;2.33;1.67;;;;;;;;5120761;27;45411;-80
2022/08/13 13:18:42;;;;;;;;;3.00;2.00;;;;;;;;5122083;27;46267;-79
2022/08/13 13:21:07;;;;;;;;;1.67;1.67;;;;;;;;5121481;27;45355;-80
2022/08/13 13:23:33;;;;;;;;;2.33;2.33;;;;;;;;5122029;27;45425;-80
2022/08/13 13:25:59;;;;;;;;;1.67;1.67;;;;;;;;5122002;27;45476;-80
2022/08/13 13:28:25;;;;;;;;;2.33;1.67;;;;;;;;5121802;27;45474;-79
2022/08/13 13:30:51;;;;;;;;;4.00;2.33;;;;;;;;5121760;27;45262;-81
2022/08/13 13:33:18;;;;;;;;;2.00;1.67;;;;;;;;5121750;27;45466;-78
2022/08/13 13:35:45;;;;;;;;;1.67;1.67;;;;;;;;5122032;27;45507;-80
2022/08/13 13:38:11;;;;;;;;;2.00;2.00;;;;;;;;5121087;27;46506;-78
2022/08/13 13:40:39;;;;;;;;;63.25;49.25;;;;;;;;5121410;27;45318;-81
2022/08/13 13:43:04;;;;;;;;;29.00;26.00;;;;;;;;5121821;27;45351;-80
2022/08/13 13:45:30;;;;;;;;;11.00;9.00;;;;;;;;5121643;27;45429;-80
2022/08/13 13:47:56;;;;;;;;;6.00;5.00;;;;;;;;5121337;27;46060;-80
2022/08/13 13:50:22;;;;;;;;;3.33;3.33;;;;;;;;5121606;27;45207;-79
2022/08/13 13:52:47;;;;;;;;;1.67;1.67;;;;;;;;5121660;27;45260;-79
2022/08/13 13:55:13;;;;;;;;;2.00;2.00;;;;;;;;5121794;27;45351;-77
2022/08/13 13:57:39;;;;;;;;;3.00;3.00;;;;;;;;5121223;27;46375;-80
2022/08/13 14:00:05;;;;;;;;;5.00;3.33;;;;;;;;5121213;27;45481;-81
2022/08/13 14:02:31;;;;;;;;;1.67;1.67;;;;;;;;5121404;27;45422;-81
2022/08/13 14:04:57;;;;;;;;;3.67;3.67;;;;;;;;5121598;27;45361;-78
2022/08/13 14:07:22;;;;;;;;;5.33;5.33;;;;;;;;5120962;27;45406;-81
2022/08/13 14:09:47;;;;;;;;;3.00;2.33;;;;;;;;5121183;27;45310;-81
2022/08/13 14:12:12;;;;;;;;;2.00;2.00;;;;;;;;5121317;27;45293;-77
2022/08/13 14:14:38;;;;;;;;;2.67;2.67;;;;;;;;5121242;27;45320;-81
2022/08/13 14:17:03;;;;;;;;;3.00;3.00;;;;;;;;5120929;27;45472;-81
2022/08/13 14:19:29;;;;;;;;;2.33;2.33;;;;;;;;5121259;27;45964;-77
2022/08/13 14:21:55;;;;;;;;;11.50;10.00;;;;;;;;5121139;27;45265;-79
2022/08/13 14:24:20;;;;;;;;;3.00;3.00;;;;;;;;5121019;27;45196;-81
2022/08/13 14:26:46;;;;;;;;;2.67;2.67;;;;;;;;5119962;27;45219;-80
2022/08/13 14:29:13;;;;;;;;;2.67;2.67;;;;;;;;5120709;27;45219;-78
2022/08/13 14:31:38;;;;;;;;;1.67;1.67;;;;;;;;5120980;27;45392;-79
2022/08/13 14:34:03;;;;;;;;;3.00;2.67;;;;;;;;5120917;27;45460;-80
2022/08/13 14:36:29;;;;;;;;;1.67;1.67;;;;;;;;5120638;27;47334;-80
2022/08/13 14:38:55;;;;;;;;;2.00;2.00;;;;;;;;5121053;27;45389;-79
2022/08/13 14:41:20;;;;;;;;;2.33;1.67;;;;;;;;5120878;27;45371;-80
2022/08/13 14:43:46;;;;;;;;;3.67;3.67;;;;;;;;5121025;27;45414;-81
2022/08/13 14:46:13;;;;;;;;;4.00;4.00;;;;;;;;5120429;27;47300;-80
2022/08/13 14:48:39;;;;;;;;;3.00;3.00;;;;;;;;5120639;27;45310;-80
2022/08/13 14:51:05;;;;;;;;;3.00;3.00;;;;;;;;5120648;27;45378;-81
2022/08/13 14:53:30;;;;;;;;;3.00;3.00;;;;;;;;5120706;27;45507;-81